Time;durP1;ratioP1;P1;durP2;ratioP2;P2;SDS_P1;SDS_P2;PMS_P1;PMS_P2;Temp;Humidity;BMP_temperature;BMP_pressure;BME280_temperature;BME280_humidity;BME280_pressure;Samples;Min_cycle;Max_cycle;Signal;HPM_P1;HPM_P2
2022/07/01 00:02:04;;;;;;;3.60;1.27;;;15.10;99.90;;;;;;4942171;28;89678;-33
2022/07/01 00:04:30;;;;;;;0.20;0.10;;;15.10;99.90;;;;;;4941468;28;89274;-36
2022/07/01 00:06:57;;;;;;;0.20;0.10;;;15.00;99.90;;;;;;4941341;28;90129;-34
2022/07/01 00:09:23;;;;;;;0.20;0.10;;;15.00;99.90;;;;;;4941940;28;91795;-33
2022/07/01 00:11:50;;;;;;;0.20;0.10;;;15.00;99.90;;;;;;4940815;28;88991;-34
2022/07/01 00:14:15;;;;;;;2.05;1.85;;;15.10;99.90;;;;;;4941802;28;88655;-35
2022/07/01 00:16:41;;;;;;;0.20;0.10;;;15.20;99.90;;;;;;4941600;28;90121;-33
2022/07/01 00:19:07;;;;;;;0.20;0.10;;;15.10;99.90;;;;;;4940997;28;89643;-38
2022/07/01 00:21:33;;;;;;;0.20;0.10;;;15.10;99.90;;;;;;4941984;28;88267;-34
2022/07/01 00:23:59;;;;;;;0.20;0.10;;;15.00;99.90;;;;;;4941344;28;87649;-36
2022/07/01 00:26:24;;;;;;;0.20;0.20;;;15.00;99.90;;;;;;4941024;28;90083;-34
2022/07/01 00:28:50;;;;;;;0.20;0.10;;;15.10;99.90;;;;;;4940777;28;91513;-33
2022/07/01 00:31:16;;;;;;;0.20;0.10;;;15.10;99.90;;;;;;4941043;28;90786;-35
2022/07/01 00:33:42;;;;;;;0.20;0.10;;;15.10;99.90;;;;;;4941615;28;89753;-33
2022/07/01 00:36:07;;;;;;;0.20;0.10;;;15.10;99.90;;;;;;4941076;28;90165;-35
2022/07/01 00:38:33;;;;;;;0.20;0.10;;;15.10;99.90;;;;;;4940874;28;89305;-34
2022/07/01 00:40:59;;;;;;;0.20;0.10;;;15.10;99.90;;;;;;4940558;28;89427;-40
2022/07/01 00:43:25;;;;;;;0.35;0.13;;;15.10;99.90;;;;;;4941813;28;89067;-39
2022/07/01 00:45:52;;;;;;;0.20;0.10;;;15.10;99.90;;;;;;4941325;28;88822;-34
2022/07/01 00:48:19;;;;;;;0.20;0.10;;;15.10;99.90;;;;;;4940950;28;90573;-34
2022/07/01 00:50:45;;;;;;;0.20;0.10;;;15.10;99.90;;;;;;4940998;28;89009;-33
2022/07/01 00:53:14;;;;;;;0.50;0.50;;;15.10;99.90;;;;;;4941020;28;88803;-34
2022/07/01 00:55:41;;;;;;;0.20;0.10;;;15.10;99.90;;;;;;4941421;28;90461;-35
2022/07/01 00:58:08;;;;;;;0.20;0.10;;;15.20;99.90;;;;;;4940872;28;90185;-36
2022/07/01 01:00:35;;;;;;;0.30;0.30;;;15.20;99.90;;;;;;4954831;28;90204;-35
2022/07/01 01:03:01;;;;;;;0.20;0.10;;;15.20;99.90;;;;;;4941188;28;88718;-34
2022/07/01 01:05:26;;;;;;;0.20;0.20;;;15.20;99.90;;;;;;4940511;28;90007;-36
2022/07/01 01:07:52;;;;;;;0.20;0.10;;;15.10;99.90;;;;;;4975152;22;90403;-35
2022/07/01 01:10:18;;;;;;;0.20;0.10;;;15.20;99.90;;;;;;4944290;28;89703;-35
2022/07/01 01:12:44;;;;;;;0.63;0.63;;;15.20;99.90;;;;;;4940434;28;88981;-34
2022/07/01 01:15:16;;;;;;;0.20;0.10;;;15.20;99.90;;;;;;4940918;28;90269;-36
2022/07/01 01:17:42;;;;;;;0.20;0.13;;;15.10;99.90;;;;;;4939829;28;91116;-33
2022/07/01 01:20:08;;;;;;;0.20;0.10;;;15.10;99.90;;;;;;4940681;28;92174;-34
2022/07/01 01:22:34;;;;;;;0.30;0.30;;;15.10;99.90;;;;;;4940226;28;88471;-34
2022/07/01 01:24:59;;;;;;;0.20;0.10;;;15.10;99.90;;;;;;4940756;28;90401;-36
2022/07/01 01:27:25;;;;;;;0.20;0.10;;;15.10;99.90;;;;;;4939952;28;89169;-34
2022/07/01 01:29:50;;;;;;;0.20;0.10;;;15.10;99.90;;;;;;4940620;28;89556;-35
2022/07/01 01:32:16;;;;;;;0.20;0.10;;;15.10;99.90;;;;;;4939388;28;90162;-34
2022/07/01 01:34:42;;;;;;;0.20;0.10;;;15.10;99.90;;;;;;4940965;28;90004;-34
2022/07/01 01:37:09;;;;;;;0.20;0.10;;;15.10;99.90;;;;;;4939178;28;89487;-35
2022/07/01 01:39:37;;;;;;;0.38;0.38;;;15.10;99.90;;;;;;4939370;28;89675;-37
2022/07/01 01:42:04;;;;;;;0.20;0.10;;;15.10;99.90;;;;;;4940044;28;88968;-33
2022/07/01 01:44:30;;;;;;;0.20;0.10;;;15.10;99.90;;;;;;4940030;28;90297;-39
2022/07/01 01:46:55;;;;;;;0.20;0.10;;;15.10;99.90;;;;;;4940037;28;90033;-35
2022/07/01 01:49:21;;;;;;;0.77;0.10;;;15.00;99.90;;;;;;4939809;28;89907;-36
2022/07/01 01:51:47;;;;;;;0.20;0.10;;;15.10;99.90;;;;;;4940178;28;89786;-33
2022/07/01 01:54:12;;;;;;;0.20;0.10;;;15.10;99.90;;;;;;4939773;28;90193;-34
2022/07/01 01:56:38;;;;;;;0.20;0.10;;;15.00;99.90;;;;;;4940188;28;88674;-33
2022/07/01 01:59:04;;;;;;;0.20;0.10;;;15.10;99.90;;;;;;4940102;28;90065;-35
2022/07/01 02:01:30;;;;;;;0.20;0.00;;;15.00;99.90;;;;;;4940708;28;88502;-34
2022/07/01 02:03:56;;;;;;;0.25;0.25;;;15.00;99.90;;;;;;4940045;28;89085;-36
2022/07/01 02:06:22;;;;;;;0.20;0.10;;;15.00;99.90;;;;;;4939252;28;90569;-34
2022/07/01 02:08:48;;;;;;;0.20;0.17;;;15.00;99.90;;;;;;4951552;28;90108;-37
2022/07/01 02:11:14;;;;;;;0.20;0.10;;;15.00;99.90;;;;;;4959583;28;88026;-34
2022/07/01 02:13:39;;;;;;;0.20;0.10;;;15.00;99.90;;;;;;4972745;28;90114;-37
2022/07/01 02:16:05;;;;;;;0.20;0.10;;;15.00;99.90;;;;;;4959794;28;90267;-34
2022/07/01 02:18:32;;;;;;;0.20;0.10;;;14.90;99.90;;;;;;4972177;28;89157;-34
2022/07/01 02:20:58;;;;;;;0.20;0.20;;;14.90;99.90;;;;;;4971581;28;87656;-36
2022/07/01 02:23:24;;;;;;;0.20;0.10;;;14.90;99.90;;;;;;4979121;28;91345;-34
2022/07/01 02:25:50;;;;;;;0.20;0.20;;;15.00;99.90;;;;;;4978582;28;89979;-33
2022/07/01 02:28:16;;;;;;;0.30;0.30;;;15.00;99.90;;;;;;4964093;28;89052;-36
2022/07/01 02:30:42;;;;;;;0.20;0.10;;;15.00;99.90;;;;;;4958843;28;90289;-34
2022/07/01 02:33:09;;;;;;;0.20;0.10;;;15.00;99.90;;;;;;4972187;28;90176;-36
2022/07/01 02:35:39;;;;;;;0.20;0.10;;;15.00;99.90;;;;;;4979225;28;90152;-39
2022/07/01 02:38:06;;;;;;;0.20;0.10;;;15.00;99.90;;;;;;4979311;28;90669;-33
2022/07/01 02:40:33;;;;;;;0.20;0.10;;;14.90;99.90;;;;;;4979156;28;88804;-34
2022/07/01 02:42:59;;;;;;;0.20;0.10;;;14.90;99.90;;;;;;4978274;28;91480;-34
2022/07/01 02:45:25;;;;;;;0.20;0.10;;;14.90;99.90;;;;;;4963004;28;89649;-35
2022/07/01 02:47:51;;;;;;;0.20;0.10;;;14.90;99.90;;;;;;4966960;28;89390;-35
2022/07/01 02:50:18;;;;;;;0.20;0.10;;;14.90;99.90;;;;;;4982336;28;89838;-38
2022/07/01 02:52:45;;;;;;;0.20;0.10;;;14.90;99.90;;;;;;4982600;28;89055;-37
2022/07/01 02:55:12;;;;;;;0.20;0.10;;;14.90;99.90;;;;;;4981875;28;90779;-35
2022/07/01 02:57:39;;;;;;;0.20;0.10;;;14.90;99.90;;;;;;4982076;28;90472;-33
2022/07/01 03:00:07;;;;;;;0.20;0.10;;;14.90;99.90;;;;;;4982763;28;89274;-33
2022/07/01 03:02:33;;;;;;;0.20;0.10;;;14.90;99.90;;;;;;4982233;28;90313;-36
2022/07/01 03:04:59;;;;;;;0.20;0.10;;;14.90;99.90;;;;;;4981662;28;89942;-33
2022/07/01 03:07:25;;;;;;;0.20;0.10;;;14.90;99.90;;;;;;4981784;28;89410;-34
2022/07/01 03:09:51;;;;;;;0.20;0.10;;;15.00;99.90;;;;;;4981867;28;88586;-34
2022/07/01 03:12:27;;;;;;;0.20;0.10;;;15.00;99.90;;;;;;4982124;28;90773;-34
2022/07/01 03:15:06;;;;;;;0.20;0.15;;;15.00;99.90;;;;;;4981631;28;90433;-35
2022/07/01 03:17:34;;;;;;;0.20;0.13;;;15.00;99.90;;;;;;4981698;28;88610;-39
2022/07/01 03:20:01;;;;;;;0.60;0.60;;;15.00;99.90;;;;;;4967543;28;88069;-35
2022/07/01 03:22:30;;;;;;;0.20;0.10;;;15.00;99.90;;;;;;4981938;28;90138;-34
2022/07/01 03:24:56;;;;;;;0.20;0.10;;;15.00;99.90;;;;;;4981604;28;91226;-34
2022/07/01 03:27:23;;;;;;;0.65;0.50;;;15.00;99.90;;;;;;4981446;28;89898;-37
2022/07/01 03:29:50;;;;;;;0.28;0.25;;;15.00;99.90;;;;;;4982125;28;88391;-36
2022/07/01 03:32:15;;;;;;;0.68;0.65;;;15.00;99.90;;;;;;4981515;28;88387;-35
2022/07/01 03:34:44;;;;;;;2.15;0.85;;;15.00;99.90;;;;;;4981137;28;89297;-34
2022/07/01 03:37:10;;;;;;;;;;;15.00;99.90;;;;;;4982652;28;89328;-35
2022/07/01 03:39:37;;;;;;;1.63;1.55;;;15.00;99.90;;;;;;4982714;28;89544;-38
2022/07/01 03:42:05;;;;;;;0.50;0.50;;;15.00;99.90;;;;;;4981059;28;90222;-34
2022/07/01 03:44:31;;;;;;;0.97;0.97;;;15.00;99.90;;;;;;4980992;28;90746;-34
2022/07/01 03:46:56;;;;;;;1.27;1.17;;;15.00;99.90;;;;;;4981546;28;89799;-33
2022/07/01 03:49:22;;;;;;;0.20;0.10;;;14.90;99.90;;;;;;4981267;28;89810;-33
2022/07/01 03:51:48;;;;;;;0.30;0.30;;;14.90;99.90;;;;;;4981319;28;89759;-34
2022/07/01 03:54:29;;;;;;;1.85;1.80;;;14.90;99.90;;;;;;4981538;28;90666;-33
2022/07/01 03:57:09;;;;;;;0.22;0.22;;;14.90;99.90;;;;;;4981445;28;89715;-33
2022/07/01 03:59:39;;;;;;;0.73;0.73;;;14.90;99.90;;;;;;4980955;28;88374;-39
2022/07/01 04:02:05;;;;;;;0.20;0.10;;;14.90;99.90;;;;;;4981215;28;89432;-35
2022/07/01 04:04:31;;;;;;;1.63;1.52;;;14.90;99.90;;;;;;4980776;28;91518;-35
2022/07/01 04:06:58;;;;;;;0.20;0.20;;;14.90;99.90;;;;;;4980766;28;89512;-35
2022/07/01 04:09:25;;;;;;;0.38;0.25;;;14.90;99.90;;;;;;4980202;28;90259;-36
2022/07/01 04:11:51;;;;;;;1.23;1.23;;;14.80;99.90;;;;;;4980622;28;90211;-34
2022/07/01 04:14:17;;;;;;;0.20;0.10;;;14.80;99.90;;;;;;4980416;28;89806;-35
2022/07/01 04:16:44;;;;;;;0.63;0.63;;;14.80;99.90;;;;;;4980757;28;89303;-36
2022/07/01 04:19:11;;;;;;;0.73;0.68;;;14.80;99.90;;;;;;4968362;28;88041;-34
2022/07/01 04:24:24;;;;;;;1.05;0.52;;;14.80;99.90;;;;;;4981622;28;90098;-33
2022/07/01 04:26:51;;;;;;;1.52;1.42;;;14.80;99.90;;;;;;4952367;28;88403;-33
2022/07/01 04:29:18;;;;;;;1.48;1.38;;;14.90;99.90;;;;;;4980461;28;88032;-37
2022/07/01 04:31:44;;;;;;;4.05;1.27;;;14.80;99.90;;;;;;4980792;28;90226;-35
2022/07/01 04:34:11;;;;;;;0.60;0.60;;;14.80;99.90;;;;;;4980444;28;90646;-33
2022/07/01 04:36:37;;;;;;;0.40;0.40;;;14.80;99.90;;;;;;4979467;28;90539;-34
2022/07/01 04:39:04;;;;;;;8.98;0.95;;;14.80;99.90;;;;;;4980464;28;88397;-34
2022/07/01 04:44:15;;;;;;;1.10;1.10;;;14.80;99.90;;;;;;4980555;28;89728;-34
2022/07/01 04:46:41;;;;;;;0.25;0.25;;;14.80;99.90;;;;;;4980288;28;89607;-35
2022/07/01 04:49:07;;;;;;;0.57;0.57;;;14.80;99.90;;;;;;4980233;28;88611;-34
2022/07/01 04:51:34;;;;;;;0.20;0.20;;;14.80;99.90;;;;;;4979551;28;89940;-36
2022/07/01 04:54:04;;;;;;;0.93;0.93;;;14.90;99.90;;;;;;4980351;28;89479;-38
2022/07/01 04:56:29;;;;;;;0.80;0.47;;;14.90;99.90;;;;;;4980395;28;89708;-37
2022/07/01 04:58:56;;;;;;;1.65;1.55;;;14.80;99.90;;;;;;4979504;28;89998;-36
2022/07/01 05:01:22;;;;;;;0.43;0.43;;;14.80;99.90;;;;;;4979989;28;90386;-33
2022/07/01 05:03:47;;;;;;;1.25;1.25;;;14.80;99.90;;;;;;4979739;28;88458;-32
2022/07/01 05:06:13;;;;;;;0.55;0.55;;;14.80;99.90;;;;;;4980132;28;89688;-33
2022/07/01 05:08:39;;;;;;;1.00;1.00;;;14.80;99.90;;;;;;4979255;28;89167;-40
2022/07/01 05:11:04;;;;;;;0.38;0.38;;;14.70;99.90;;;;;;4979608;28;90323;-35
2022/07/01 05:13:30;;;;;;;0.77;0.77;;;14.70;99.90;;;;;;4979634;28;88828;-37
2022/07/01 05:15:55;;;;;;;1.20;1.20;;;14.70;99.90;;;;;;4979721;28;89464;-34
2022/07/01 05:23:50;;;;;;;0.73;0.70;;;14.80;99.90;;;;;;4978706;28;90428;-35
2022/07/01 05:26:17;;;;;;;0.77;0.77;;;14.80;99.90;;;;;;4979599;28;90375;-37
2022/07/01 05:28:46;;;;;;;0.60;0.50;;;14.70;99.90;;;;;;4979752;28;89009;-33
2022/07/01 05:31:11;;;;;;;0.85;0.85;;;14.80;99.90;;;;;;4980120;28;90573;-33
2022/07/01 05:33:37;;;;;;;0.43;0.43;;;14.80;99.90;;;;;;4978677;28;89420;-34
2022/07/01 05:36:03;;;;;;;0.40;0.40;;;14.80;99.90;;;;;;4979737;28;89781;-35
2022/07/01 05:38:28;;;;;;;2.58;2.38;;;14.70;99.90;;;;;;4979249;28;89824;-33
2022/07/01 05:40:54;;;;;;;0.98;0.98;;;14.80;99.90;;;;;;4979937;28;90070;-33
2022/07/01 05:43:20;;;;;;;0.98;0.98;;;14.80;99.90;;;;;;4980240;28;89682;-34
2022/07/01 05:45:46;;;;;;;0.98;0.98;;;14.90;99.90;;;;;;4979173;28;90103;-38
2022/07/01 05:48:11;;;;;;;3.00;2.83;;;14.90;99.90;;;;;;4979082;28;89806;-34
2022/07/01 05:50:39;;;;;;;1.55;1.55;;;15.00;99.90;;;;;;4978897;28;90556;-34
2022/07/01 05:53:04;;;;;;;1.45;1.02;;;15.10;99.90;;;;;;4979570;28;89688;-34
2022/07/01 05:55:30;;;;;;;1.67;1.50;;;15.10;99.90;;;;;;4979383;28;90513;-36
2022/07/01 05:57:55;;;;;;;0.85;0.85;;;15.20;99.90;;;;;;4978581;28;88837;-34
2022/07/01 06:00:21;;;;;;;3.58;3.33;;;15.20;99.90;;;;;;4979714;28;90221;-37
2022/07/01 06:02:47;;;;;;;0.85;0.85;;;15.20;99.90;;;;;;4979303;28;89764;-35
2022/07/01 06:05:15;;;;;;;0.98;0.98;;;15.20;99.90;;;;;;4979828;28;89416;-34
2022/07/01 06:07:41;;;;;;;1.13;1.13;;;15.20;99.90;;;;;;4979499;28;89118;-35
2022/07/01 06:10:10;;;;;;;0.20;0.17;;;15.20;99.90;;;;;;4978481;28;90171;-35
2022/07/01 06:12:36;;;;;;;1.65;1.55;;;15.30;99.90;;;;;;4978119;28;90593;-34
2022/07/01 06:15:02;;;;;;;0.47;0.47;;;15.30;99.90;;;;;;4979232;28;90416;-34
2022/07/01 06:17:27;;;;;;;1.05;0.82;;;15.30;99.90;;;;;;4979086;28;90370;-33
2022/07/01 06:19:53;;;;;;;1.17;1.02;;;15.30;99.90;;;;;;4964419;28;89810;-38
2022/07/01 06:22:20;;;;;;;2.15;1.58;;;15.30;99.90;;;;;;4979568;28;89972;-34
2022/07/01 06:24:47;;;;;;;0.20;0.20;;;15.30;99.90;;;;;;4981066;28;89187;-37
2022/07/01 06:27:12;;;;;;;0.20;0.10;;;15.40;99.90;;;;;;4983068;28;90135;-33
2022/07/01 06:29:38;;;;;;;0.85;0.85;;;15.40;99.90;;;;;;4981278;28;90363;-33
2022/07/01 06:32:10;;;;;;;1.05;1.00;;;15.40;99.90;;;;;;4982226;28;89885;-34
2022/07/01 06:34:36;;;;;;;1.55;1.50;;;15.50;99.90;;;;;;4982190;28;90398;-34
2022/07/01 06:37:01;;;;;;;0.40;0.40;;;15.60;99.90;;;;;;4982364;28;89153;-34
2022/07/01 06:39:28;;;;;;;0.55;0.55;;;15.60;99.90;;;;;;4982611;28;90320;-35
2022/07/01 06:41:55;;;;;;;1.55;0.90;;;15.70;99.90;;;;;;4981878;28;89830;-33
2022/07/01 06:44:21;;;;;;;0.55;0.55;;;15.70;99.90;;;;;;4969797;28;89092;-35
2022/07/01 06:46:46;;;;;;;1.08;1.02;;;15.70;99.90;;;;;;4942869;28;88381;-33
2022/07/01 06:49:12;;;;;;;3.90;3.60;;;15.70;99.90;;;;;;4946938;28;90080;-36
2022/07/01 06:51:38;;;;;;;0.73;0.65;;;15.80;99.90;;;;;;4944733;28;90888;-37
2022/07/01 06:54:04;;;;;;;1.17;1.17;;;15.80;99.90;;;;;;4949109;28;89166;-33
2022/07/01 06:56:30;;;;;;;1.45;1.42;;;15.90;99.90;;;;;;4962940;28;89197;-38
2022/07/01 06:58:56;;;;;;;1.52;1.42;;;16.00;99.90;;;;;;4962090;28;90150;-34
2022/07/01 07:01:21;;;;;;;2.72;2.53;;;16.00;99.90;;;;;;4961125;28;90988;-34
2022/07/01 07:03:47;;;;;;;1.00;0.95;;;16.00;99.90;;;;;;4961695;28;91019;-34
2022/07/01 07:06:13;;;;;;;0.28;0.22;;;15.90;99.90;;;;;;4962670;28;89198;-36
2022/07/01 07:08:38;;;;;;;1.65;1.55;;;15.80;99.90;;;;;;4961304;28;89739;-38
2022/07/01 07:11:04;;;;;;;5.03;4.53;;;15.90;99.90;;;;;;4964859;28;90013;-36
2022/07/01 07:13:30;;;;;;;3.35;1.70;;;15.90;99.90;;;;;;4964366;28;89821;-38
2022/07/01 07:15:56;;;;;;;0.30;0.30;;;15.90;99.90;;;;;;4964051;28;89375;-34
2022/07/01 07:18:21;;;;;;;2.88;2.45;;;15.80;99.90;;;;;;4976005;28;88765;-34
2022/07/01 07:20:47;;;;;;;0.88;0.88;;;15.80;99.90;;;;;;4972594;28;90007;-36
2022/07/01 07:23:13;;;;;;;4.85;2.08;;;15.80;99.90;;;;;;4981223;28;89981;-34
2022/07/01 07:25:39;;;;;;;1.88;1.58;;;15.80;99.90;;;;;;4981092;28;90102;-38
2022/07/01 07:28:05;;;;;;;1.52;1.42;;;15.90;99.90;;;;;;4981689;28;90653;-36
2022/07/01 07:30:30;;;;;;;4.97;0.63;;;15.80;99.90;;;;;;4981378;28;89535;-33
2022/07/01 07:32:56;;;;;;;0.70;0.70;;;15.80;99.90;;;;;;4981796;28;90245;-38
2022/07/01 07:35:22;;;;;;;0.43;0.43;;;15.80;99.90;;;;;;4981130;28;88227;-34
2022/07/01 07:37:47;;;;;;;2.45;2.25;;;15.90;99.90;;;;;;4968883;28;90475;-38
2022/07/01 07:40:17;;;;;;;2.08;1.95;;;16.00;99.90;;;;;;4946706;28;89937;-35
2022/07/01 07:42:44;;;;;;;1.75;1.50;;;16.00;99.90;;;;;;4961577;28;89580;-33
2022/07/01 07:45:11;;;;;;;0.68;0.68;;;15.90;99.90;;;;;;4961781;28;87959;-36
2022/07/01 07:47:37;;;;;;;3.08;2.17;;;16.00;99.90;;;;;;4960815;28;90320;-35
2022/07/01 07:50:04;;;;;;;1.27;0.77;;;16.10;99.90;;;;;;4960708;28;90715;-34
2022/07/01 07:52:29;;;;;;;0.80;0.80;;;16.10;99.90;;;;;;4961125;28;90790;-35
2022/07/01 07:54:55;;;;;;;0.68;0.68;;;16.20;99.90;;;;;;4961849;28;89300;-34
2022/07/01 07:57:21;;;;;;;0.20;0.17;;;16.30;99.90;;;;;;4961374;28;90060;-36
2022/07/01 07:59:47;;;;;;;3.22;2.53;;;16.20;99.90;;;;;;4953432;28;88833;-38
2022/07/01 08:02:13;;;;;;;0.93;0.93;;;16.40;99.90;;;;;;4943583;28;89461;-35
2022/07/01 08:04:39;;;;;;;0.20;0.17;;;16.30;99.90;;;;;;4941391;28;89715;-35
2022/07/01 08:07:05;;;;;;;0.63;0.63;;;16.30;99.90;;;;;;4956985;28;90467;-34
2022/07/01 08:09:34;;;;;;;1.00;1.00;;;16.40;99.90;;;;;;4958220;28;89198;-35
2022/07/01 08:12:00;;;;;;;1.60;0.90;;;16.40;99.90;;;;;;4943003;28;90668;-34
2022/07/01 08:14:26;;;;;;;2.97;0.57;;;16.40;99.90;;;;;;4957066;28;89580;-38
2022/07/01 08:16:52;;;;;;;2.90;2.80;;;16.40;99.90;;;;;;4946395;28;90548;-34
2022/07/01 08:19:17;;;;;;;1.05;1.05;;;16.50;99.90;;;;;;4941854;28;89210;-32
2022/07/01 08:21:43;;;;;;;1.42;0.98;;;16.60;99.90;;;;;;4948398;28;90042;-37
2022/07/01 08:24:08;;;;;;;1.73;1.65;;;16.70;99.90;;;;;;4961031;28;88061;-38
2022/07/01 08:26:34;;;;;;;1.40;1.33;;;16.70;99.90;;;;;;4961080;28;90652;-37
2022/07/01 08:28:59;;;;;;;8.63;1.95;;;16.80;99.90;;;;;;4977451;28;89284;-34
2022/07/01 08:31:25;;;;;;;1.25;1.25;;;16.90;99.90;;;;;;4980502;28;88942;-36
2022/07/01 08:33:51;;;;;;;0.90;0.90;;;17.00;99.90;;;;;;4966508;28;89478;-34
2022/07/01 08:36:16;;;;;;;2.15;2.05;;;17.10;99.90;;;;;;4964564;28;90312;-37
2022/07/01 08:38:42;;;;;;;1.73;1.63;;;17.30;99.90;;;;;;4958207;28;90080;-37
2022/07/01 08:41:08;;;;;;;1.70;1.60;;;17.50;99.90;;;;;;4958265;28;89498;-37
2022/07/01 08:43:34;;;;;;;1.35;1.27;;;17.80;99.90;;;;;;4958566;28;89583;-36
2022/07/01 08:46:01;;;;;;;0.70;0.70;;;17.80;99.90;;;;;;4958282;28;89897;-34
2022/07/01 08:48:28;;;;;;;0.55;0.55;;;18.10;99.90;;;;;;4958433;28;89819;-35
2022/07/01 08:50:54;;;;;;;0.30;0.30;;;18.20;99.90;;;;;;4957539;28;89507;-37
2022/07/01 08:53:20;;;;;;;0.52;0.50;;;18.40;99.90;;;;;;4958854;28;87913;-32
2022/07/01 08:58:30;;;;;;;0.63;0.63;;;18.80;99.90;;;;;;4958569;28;89864;-37
2022/07/01 09:01:15;;;;;;;1.00;0.90;;;18.90;99.90;;;;;;4958234;28;89442;-37
2022/07/01 09:03:41;;;;;;;2.40;1.38;;;19.00;99.90;;;;;;4962061;28;90552;-38
2022/07/01 09:06:17;;;;;;;2.80;2.70;;;18.90;99.90;;;;;;4978388;28;90127;-36
2022/07/01 09:08:44;;;;;;;2.05;0.68;;;19.00;99.90;;;;;;4977243;28;91024;-33
2022/07/01 09:11:19;;;;;;;1.15;0.73;;;19.10;99.90;;;;;;4977822;28;89465;-36
2022/07/01 09:14:05;;;;;;;1.45;0.93;;;19.00;99.90;;;;;;4977918;28;89492;-33
2022/07/01 09:16:43;;;;;;;0.20;0.20;;;18.80;99.90;;;;;;4977523;28;90299;-34
2022/07/01 09:19:08;;;;;;;;;;;18.70;99.90;;;;;;4977996;28;89425;-35
2022/07/01 09:21:34;;;;;;;0.20;0.10;;;19.10;99.90;;;;;;4978997;28;88256;-38
2022/07/01 09:24:22;;;;;;;1.02;1.02;;;19.30;99.90;;;;;;4978836;28;89637;-35
2022/07/01 09:26:53;;;;;;;2.42;2.33;;;19.30;99.90;;;;;;4977413;28;90480;-37
2022/07/01 09:29:18;;;;;;;2.70;2.50;;;19.60;99.90;;;;;;4976456;28;90305;-36
2022/07/01 09:31:50;;;;;;;0.40;0.40;;;19.70;99.90;;;;;;4976861;28;90567;-37
2022/07/01 09:34:16;;;;;;;0.52;0.35;;;19.70;99.90;;;;;;4977621;28;90079;-36
2022/07/01 09:36:52;;;;;;;1.17;1.02;;;19.30;99.90;;;;;;4977865;28;90377;-34
2022/07/01 09:39:17;;;;;;;0.43;0.43;;;19.10;99.90;;;;;;4977659;28;89910;-35
2022/07/01 09:41:43;;;;;;;0.43;0.43;;;18.90;99.90;;;;;;4976620;28;90514;-35
2022/07/01 09:44:09;;;;;;;0.70;0.45;;;18.80;99.90;;;;;;4978041;28;88460;-35
2022/07/01 09:46:35;;;;;;;1.67;1.60;;;18.80;99.90;;;;;;4977118;28;90387;-36
2022/07/01 09:49:01;;;;;;;1.25;1.23;;;18.60;99.90;;;;;;4977185;28;90188;-36
2022/07/01 09:51:28;;;;;;;0.30;0.30;;;18.70;99.90;;;;;;4950987;28;90123;-34
2022/07/01 09:53:56;;;;;;;0.20;0.08;;;18.70;99.90;;;;;;4955450;28;89847;-36
2022/07/01 09:56:22;;;;;;;0.28;0.28;;;18.70;99.90;;;;;;4957163;28;89878;-37
2022/07/01 09:58:48;;;;;;;0.28;0.28;;;18.60;99.90;;;;;;4953352;28;89683;-37
2022/07/01 10:01:15;;;;;;;0.20;0.20;;;18.60;99.90;;;;;;4937377;28;89416;-34
2022/07/01 10:03:41;;;;;;;0.30;0.30;;;18.70;99.90;;;;;;4938096;28;89919;-40
2022/07/01 10:06:06;;;;;;;0.65;0.65;;;18.70;99.90;;;;;;4957299;28;88828;-34
2022/07/01 10:08:57;;;;;;;0.90;0.82;;;18.70;99.90;;;;;;4956530;28;89381;-34
2022/07/01 10:11:44;;;;;;;0.82;0.82;;;18.90;99.90;;;;;;4956573;28;89941;-37
2022/07/01 10:14:13;;;;;;;0.20;0.10;;;18.90;99.90;;;;;;4947571;28;89209;-34
2022/07/01 10:16:38;;;;;;;0.68;0.68;;;18.90;99.90;;;;;;4957255;28;90227;-34
2022/07/01 10:19:24;;;;;;;0.77;0.77;;;19.10;99.90;;;;;;4975810;28;91028;-36
2022/07/01 10:21:56;;;;;;;0.20;0.20;;;19.20;99.90;;;;;;4976078;28;90154;-35
2022/07/01 10:24:23;;;;;;;0.25;0.25;;;19.50;99.90;;;;;;4976414;28;89065;-36
2022/07/01 10:26:48;;;;;;;2.05;1.95;;;19.80;99.90;;;;;;4975862;28;90312;-38
2022/07/01 10:29:34;;;;;;;0.73;0.25;;;19.70;99.90;;;;;;4976318;28;89968;-38
2022/07/01 10:32:25;;;;;;;1.58;1.48;;;19.60;99.90;;;;;;4976644;28;88984;-34
2022/07/01 10:35:06;;;;;;;0.85;0.80;;;19.70;99.90;;;;;;4976026;28;89703;-37
2022/07/01 10:37:31;;;;;;;3.40;1.88;;;19.80;99.90;;;;;;4970158;28;89801;-38
2022/07/01 10:39:59;;;;;;;0.95;0.95;;;20.00;99.90;;;;;;4956647;28;89524;-35
2022/07/01 10:42:33;;;;;;;0.20;0.20;;;20.10;99.90;;;;;;4957775;28;89472;-34
2022/07/01 10:45:04;;;;;;;0.32;0.32;;;20.00;99.90;;;;;;4957412;28;89009;-38
2022/07/01 10:47:30;;;;;;;1.20;1.10;;;20.10;99.90;;;;;;4957020;28;90104;-37
2022/07/01 10:50:13;;;;;;;0.25;0.15;;;20.10;99.90;;;;;;4957192;28;89891;-38
2022/07/01 10:52:57;;;;;;;0.50;0.50;;;19.90;99.90;;;;;;4944768;28;90313;-37
2022/07/01 10:55:39;;;;;;;1.02;1.02;;;19.80;99.90;;;;;;4958471;28;89249;-34
2022/07/01 10:58:05;;;;;;;0.68;0.65;;;19.80;99.90;;;;;;4957513;28;90191;-35
2022/07/01 11:00:33;;;;;;;0.40;0.40;;;19.50;99.90;;;;;;4957007;28;89805;-37
2022/07/01 11:03:07;;;;;;;1.73;1.65;;;19.70;99.90;;;;;;4955897;28;89192;-35
2022/07/01 11:05:35;;;;;;;0.85;0.85;;;20.10;99.90;;;;;;4955779;28;89064;-35
2022/07/01 11:08:01;;;;;;;;;;;20.50;99.90;;;;;;4956624;28;88811;-36
2022/07/01 11:10:27;;;;;;;0.22;0.22;;;20.70;99.90;;;;;;4970148;28;89907;-35
2022/07/01 11:12:52;;;;;;;0.20;0.20;;;20.70;99.90;;;;;;4979114;28;90486;-35
2022/07/01 11:15:18;;;;;;;0.30;0.30;;;20.80;99.90;;;;;;4980566;28;88661;-37
2022/07/01 11:17:48;;;;;;;0.60;0.47;;;20.80;99.90;;;;;;4977282;28;90672;-39
2022/07/01 11:20:14;;;;;;;0.20;0.10;;;20.90;99.90;;;;;;4979366;28;91042;-35
2022/07/01 11:22:40;;;;;;;0.20;0.20;;;20.80;99.90;;;;;;4979440;28;89207;-33
2022/07/01 11:25:10;;;;;;;0.20;0.08;;;20.70;99.90;;;;;;4979601;28;89500;-34
2022/07/01 11:27:37;;;;;;;0.40;0.32;;;20.70;99.90;;;;;;4979278;28;90625;-37
2022/07/01 11:30:09;;;;;;;2.20;0.75;;;20.80;99.90;;;;;;4978925;28;89656;-37
2022/07/01 11:32:41;;;;;;;0.93;0.45;;;20.80;99.90;;;;;;4979323;28;89669;-38
2022/07/01 11:40:52;;;;;;;0.35;0.13;;;21.00;99.90;;;;;;4978902;28;89674;-35
2022/07/01 11:43:27;;;;;;;0.88;0.88;;;21.10;99.90;;;;;;4978815;28;90170;-34
2022/07/01 11:45:53;;;;;;;0.47;0.47;;;21.20;99.90;;;;;;4979715;28;88902;-35
2022/07/01 11:48:37;;;;;;;0.20;0.20;;;21.10;99.90;;;;;;4979208;28;89842;-34
2022/07/01 11:51:14;;;;;;;0.25;0.25;;;21.00;99.90;;;;;;4978644;28;89868;-39
2022/07/01 11:53:42;;;;;;;0.20;0.10;;;20.80;99.90;;;;;;4978581;28;89738;-36
2022/07/01 11:56:08;;;;;;;0.20;0.00;;;20.90;99.90;;;;;;4980015;28;89642;-33
2022/07/01 11:58:53;;;;;;;0.20;0.20;;;20.80;99.90;;;;;;4978588;28;90256;-36
2022/07/01 12:01:26;;;;;;;0.20;0.10;;;20.60;99.90;;;;;;4978676;28;90950;-34
2022/07/01 12:03:53;;;;;;;0.20;0.00;;;20.80;99.90;;;;;;4978331;28;90160;-36
2022/07/01 12:06:19;;;;;;;0.28;0.10;;;21.00;99.90;;;;;;4978650;28;87691;-36
2022/07/01 12:08:46;;;;;;;0.28;0.28;;;21.20;99.90;;;;;;4977947;28;90253;-35
2022/07/01 12:11:12;;;;;;;0.35;0.35;;;21.10;99.90;;;;;;4978403;28;90081;-36
2022/07/01 12:13:38;;;;;;;0.22;0.22;;;21.00;99.90;;;;;;4949286;28;89573;-35
2022/07/01 12:16:09;;;;;;;0.20;0.10;;;21.20;99.90;;;;;;4942869;28;89283;-35
2022/07/01 12:18:34;;;;;;;0.28;0.25;;;21.50;99.90;;;;;;4944000;28;88847;-37
2022/07/01 12:21:02;;;;;;;0.20;0.08;;;21.40;99.90;;;;;;4945220;28;89405;-37
2022/07/01 12:23:28;;;;;;;;;;;21.40;99.90;;;;;;4945990;28;89357;-36
2022/07/01 12:25:54;;;;;;;0.20;0.17;;;21.30;99.90;;;;;;4959910;28;90869;-34
2022/07/01 12:28:39;;;;;;;0.60;0.60;;;21.40;99.90;;;;;;4958040;28;90346;-38
2022/07/01 12:31:07;;;;;;;0.22;0.15;;;21.60;99.90;;;;;;4958003;28;89759;-40
2022/07/01 12:33:33;;;;;;;;;;;21.30;99.90;;;;;;4958891;28;90229;-34
2022/07/01 12:36:01;;;;;;;0.45;0.35;;;21.20;99.90;;;;;;4961233;28;88555;-35
2022/07/01 12:38:27;;;;;;;0.50;0.43;;;21.20;99.90;;;;;;4951919;28;90994;-34
2022/07/01 12:40:52;;;;;;;0.45;0.35;;;20.90;99.90;;;;;;4964891;28;90416;-37
2022/07/01 12:43:37;;;;;;;0.32;0.17;;;20.80;99.90;;;;;;4965594;28;89771;-35
2022/07/01 12:46:03;;;;;;;0.20;0.10;;;20.90;99.90;;;;;;4959054;28;89106;-34
2022/07/01 12:48:46;;;;;;;0.20;0.10;;;21.00;99.90;;;;;;4958496;28;90827;-34
2022/07/01 12:51:15;;;;;;;0.57;0.57;;;21.20;99.90;;;;;;4957456;28;90763;-40
2022/07/01 12:53:41;;;;;;;0.20;0.00;;;21.40;99.90;;;;;;4959736;28;90904;-34
2022/07/01 12:56:07;;;;;;;1.10;0.35;;;21.40;99.90;;;;;;4967593;28;88629;-34
2022/07/01 12:58:32;;;;;;;0.20;0.00;;;21.30;99.90;;;;;;4969755;28;90353;-35
2022/07/01 13:00:58;;;;;;;0.20;0.00;;;21.10;99.90;;;;;;4969662;28;88838;-35
2022/07/01 13:03:26;;;;;;;0.20;0.10;;;20.90;99.90;;;;;;4970430;28;88976;-35
2022/07/01 13:05:53;;;;;;;;;;;21.10;99.90;;;;;;4969752;28;89298;-37
2022/07/01 13:08:19;;;;;;;0.20;0.00;;;21.20;99.90;;;;;;4995016;22;90234;-33
2022/07/01 13:10:46;;;;;;;0.30;0.10;;;21.30;99.90;;;;;;4952149;28;89637;-33